sensor_id;sensor_type;location;lat;lon;timestamp;temperature;humidity
22442;DHT22;11388;54.456;9.752;2022-10-19T00:00:39;12.80;99.90
22442;DHT22;11388;54.456;9.752;2022-10-19T00:03:05;12.80;99.90
22442;DHT22;11388;54.456;9.752;2022-10-19T00:05:30;12.90;99.90
22442;DHT22;11388;54.456;9.752;2022-10-19T00:07:56;12.80;99.90
22442;DHT22;11388;54.456;9.752;2022-10-19T00:10:26;12.80;99.90
22442;DHT22;11388;54.456;9.752;2022-10-19T00:12:51;13.00;99.90
22442;DHT22;11388;54.456;9.752;2022-10-19T00:15:17;12.90;99.90
22442;DHT22;11388;54.456;9.752;2022-10-19T00:17:43;12.80;99.90
22442;DHT22;11388;54.456;9.752;2022-10-19T00:20:10;12.90;99.90
22442;DHT22;11388;54.456;9.752;2022-10-19T00:22:35;12.90;99.90
22442;DHT22;11388;54.456;9.752;2022-10-19T00:25:01;13.00;99.90
22442;DHT22;11388;54.456;9.752;2022-10-19T00:27:27;13.00;99.90
22442;DHT22;11388;54.456;9.752;2022-10-19T00:29:52;12.90;99.90
22442;DHT22;11388;54.456;9.752;2022-10-19T00:32:18;12.90;99.90
22442;DHT22;11388;54.456;9.752;2022-10-19T00:34:44;13.00;99.90
22442;DHT22;11388;54.456;9.752;2022-10-19T00:37:09;12.90;99.90
22442;DHT22;11388;54.456;9.752;2022-10-19T00:39:35;12.90;99.90
22442;DHT22;11388;54.456;9.752;2022-10-19T00:42:01;12.90;99.90
22442;DHT22;11388;54.456;9.752;2022-10-19T00:47:05;12.90;99.90
22442;DHT22;11388;54.456;9.752;2022-10-19T00:49:42;12.90;99.90
22442;DHT22;11388;54.456;9.752;2022-10-19T00:52:13;12.90;99.90
22442;DHT22;11388;54.456;9.752;2022-10-19T00:54:42;12.80;99.90
22442;DHT22;11388;54.456;9.752;2022-10-19T00:57:08;12.90;99.90
22442;DHT22;11388;54.456;9.752;2022-10-19T00:59:36;12.90;99.90
22442;DHT22;11388;54.456;9.752;2022-10-19T01:02:04;12.90;99.90
22442;DHT22;11388;54.456;9.752;2022-10-19T01:04:33;12.90;99.90
22442;DHT22;11388;54.456;9.752;2022-10-19T01:07:01;12.90;99.90
22442;DHT22;11388;54.456;9.752;2022-10-19T01:09:27;12.80;99.90
22442;DHT22;11388;54.456;9.752;2022-10-19T01:14:32;12.80;99.90
22442;DHT22;11388;54.456;9.752;2022-10-19T01:20:04;12.90;99.90
22442;DHT22;11388;54.456;9.752;2022-10-19T01:39:49;12.60;99.90
22442;DHT22;11388;54.456;9.752;2022-10-19T01:42:45;12.60;99.90
22442;DHT22;11388;54.456;9.752;2022-10-19T01:45:18;12.40;99.90
22442;DHT22;11388;54.456;9.752;2022-10-19T01:48:01;12.20;99.90
22442;DHT22;11388;54.456;9.752;2022-10-19T01:50:52;12.30;99.90
22442;DHT22;11388;54.456;9.752;2022-10-19T01:53:19;12.30;99.90
22442;DHT22;11388;54.456;9.752;2022-10-19T01:55:49;12.20;99.90
22442;DHT22;11388;54.456;9.752;2022-10-19T01:58:21;12.10;99.90
22442;DHT22;11388;54.456;9.752;2022-10-19T02:00:49;12.00;99.90
22442;DHT22;11388;54.456;9.752;2022-10-19T02:03:18;12.10;99.90
22442;DHT22;11388;54.456;9.752;2022-10-19T02:05:44;12.10;99.90
22442;DHT22;11388;54.456;9.752;2022-10-19T02:08:14;12.10;99.90
22442;DHT22;11388;54.456;9.752;2022-10-19T02:10:43;12.10;99.90
22442;DHT22;11388;54.456;9.752;2022-10-19T02:13:11;12.00;99.90
22442;DHT22;11388;54.456;9.752;2022-10-19T02:15:40;11.90;99.90
22442;DHT22;11388;54.456;9.752;2022-10-19T02:18:07;11.90;99.90
22442;DHT22;11388;54.456;9.752;2022-10-19T02:20:35;11.80;99.90
22442;DHT22;11388;54.456;9.752;2022-10-19T02:23:03;11.70;99.90
22442;DHT22;11388;54.456;9.752;2022-10-19T02:25:30;11.70;99.90
22442;DHT22;11388;54.456;9.752;2022-10-19T02:27:55;11.60;99.90
22442;DHT22;11388;54.456;9.752;2022-10-19T02:30:21;11.60;99.90
22442;DHT22;11388;54.456;9.752;2022-10-19T02:32:48;11.50;99.90
22442;DHT22;11388;54.456;9.752;2022-10-19T02:35:14;11.50;99.90
22442;DHT22;11388;54.456;9.752;2022-10-19T02:37:40;11.40;99.90
22442;DHT22;11388;54.456;9.752;2022-10-19T02:40:07;11.40;99.90
22442;DHT22;11388;54.456;9.752;2022-10-19T02:42:39;11.30;99.90
22442;DHT22;11388;54.456;9.752;2022-10-19T02:48:16;11.20;99.90
22442;DHT22;11388;54.456;9.752;2022-10-19T02:50:32;11.10;99.90
22442;DHT22;11388;54.456;9.752;2022-10-19T02:52:58;11.10;99.90
22442;DHT22;11388;54.456;9.752;2022-10-19T02:55:24;11.10;99.90
22442;DHT22;11388;54.456;9.752;2022-10-19T02:57:50;10.90;99.90
22442;DHT22;11388;54.456;9.752;2022-10-19T03:00:15;10.80;99.90
22442;DHT22;11388;54.456;9.752;2022-10-19T03:02:41;10.80;99.90
22442;DHT22;11388;54.456;9.752;2022-10-19T03:05:08;10.80;99.90
22442;DHT22;11388;54.456;9.752;2022-10-19T03:07:34;10.80;99.90
22442;DHT22;11388;54.456;9.752;2022-10-19T03:09:59;10.70;99.90
22442;DHT22;11388;54.456;9.752;2022-10-19T03:12:25;10.70;99.90
22442;DHT22;11388;54.456;9.752;2022-10-19T03:14:51;10.70;99.90
22442;DHT22;11388;54.456;9.752;2022-10-19T03:17:16;10.60;99.90
22442;DHT22;11388;54.456;9.752;2022-10-19T03:19:42;10.70;99.90
22442;DHT22;11388;54.456;9.752;2022-10-19T03:22:09;10.60;99.90
22442;DHT22;11388;54.456;9.752;2022-10-19T03:24:35;10.70;99.90
22442;DHT22;11388;54.456;9.752;2022-10-19T03:27:00;10.60;99.90
22442;DHT22;11388;54.456;9.752;2022-10-19T03:29:26;10.60;99.90
22442;DHT22;11388;54.456;9.752;2022-10-19T03:31:52;10.60;99.90
22442;DHT22;11388;54.456;9.752;2022-10-19T03:34:18;10.60;99.90
22442;DHT22;11388;54.456;9.752;2022-10-19T03:36:43;10.60;99.90
22442;DHT22;11388;54.456;9.752;2022-10-19T03:39:11;10.60;99.90
22442;DHT22;11388;54.456;9.752;2022-10-19T03:41:38;10.60;99.90
22442;DHT22;11388;54.456;9.752;2022-10-19T03:44:05;10.60;99.90
22442;DHT22;11388;54.456;9.752;2022-10-19T03:46:31;10.60;99.90
22442;DHT22;11388;54.456;9.752;2022-10-19T03:48:58;10.70;99.90
22442;DHT22;11388;54.456;9.752;2022-10-19T03:51:28;10.70;99.90
22442;DHT22;11388;54.456;9.752;2022-10-19T03:53:58;10.70;99.90
22442;DHT22;11388;54.456;9.752;2022-10-19T03:56:25;10.70;99.90
22442;DHT22;11388;54.456;9.752;2022-10-19T03:58:53;10.70;99.90
22442;DHT22;11388;54.456;9.752;2022-10-19T04:01:29;10.80;99.90
22442;DHT22;11388;54.456;9.752;2022-10-19T04:03:56;10.70;99.90
22442;DHT22;11388;54.456;9.752;2022-10-19T04:06:25;10.80;99.90
22442;DHT22;11388;54.456;9.752;2022-10-19T04:08:51;10.80;99.90
22442;DHT22;11388;54.456;9.752;2022-10-19T04:11:22;10.90;99.90
22442;DHT22;11388;54.456;9.752;2022-10-19T04:13:48;11.00;99.90
22442;DHT22;11388;54.456;9.752;2022-10-19T04:16:17;11.20;99.90
22442;DHT22;11388;54.456;9.752;2022-10-19T04:18:44;11.10;99.90
22442;DHT22;11388;54.456;9.752;2022-10-19T04:21:20;11.20;99.90
22442;DHT22;11388;54.456;9.752;2022-10-19T04:23:47;11.20;99.90
22442;DHT22;11388;54.456;9.752;2022-10-19T04:26:13;11.30;99.90
22442;DHT22;11388;54.456;9.752;2022-10-19T04:28:39;11.30;99.90
22442;DHT22;11388;54.456;9.752;2022-10-19T04:31:05;11.40;99.90
22442;DHT22;11388;54.456;9.752;2022-10-19T04:33:32;11.40;99.90
22442;DHT22;11388;54.456;9.752;2022-10-19T04:35:59;11.50;99.90
22442;DHT22;11388;54.456;9.752;2022-10-19T04:38:25;11.50;99.90
22442;DHT22;11388;54.456;9.752;2022-10-19T04:40:51;11.50;99.90
22442;DHT22;11388;54.456;9.752;2022-10-19T04:43:17;11.50;99.90
22442;DHT22;11388;54.456;9.752;2022-10-19T04:45:43;11.50;99.90
22442;DHT22;11388;54.456;9.752;2022-10-19T04:48:08;11.60;99.90
22442;DHT22;11388;54.456;9.752;2022-10-19T04:50:36;11.70;99.90
22442;DHT22;11388;54.456;9.752;2022-10-19T04:53:02;11.70;99.90
22442;DHT22;11388;54.456;9.752;2022-10-19T04:55:28;11.70;99.90
22442;DHT22;11388;54.456;9.752;2022-10-19T04:57:53;11.70;99.90
22442;DHT22;11388;54.456;9.752;2022-10-19T05:00:19;11.60;99.90
22442;DHT22;11388;54.456;9.752;2022-10-19T05:02:45;11.50;99.90
22442;DHT22;11388;54.456;9.752;2022-10-19T05:05:14;11.60;99.90
22442;DHT22;11388;54.456;9.752;2022-10-19T05:07:40;11.60;99.90
22442;DHT22;11388;54.456;9.752;2022-10-19T05:10:07;11.60;99.90
22442;DHT22;11388;54.456;9.752;2022-10-19T05:12:36;11.70;99.90
22442;DHT22;11388;54.456;9.752;2022-10-19T05:15:02;11.60;99.90
22442;DHT22;11388;54.456;9.752;2022-10-19T05:17:39;11.60;99.90
22442;DHT22;11388;54.456;9.752;2022-10-19T05:20:09;11.70;99.90
22442;DHT22;11388;54.456;9.752;2022-10-19T05:22:38;11.60;99.90
22442;DHT22;11388;54.456;9.752;2022-10-19T05:25:06;11.60;99.90
22442;DHT22;11388;54.456;9.752;2022-10-19T05:31:09;11.70;99.90
22442;DHT22;11388;54.456;9.752;2022-10-19T05:37:15;11.80;99.90
22442;DHT22;11388;54.456;9.752;2022-10-19T05:39:41;11.70;99.90
22442;DHT22;11388;54.456;9.752;2022-10-19T05:42:10;11.70;99.90
22442;DHT22;11388;54.456;9.752;2022-10-19T05:44:35;11.70;99.90
22442;DHT22;11388;54.456;9.752;2022-10-19T05:47:01;11.70;99.90
22442;DHT22;11388;54.456;9.752;2022-10-19T05:49:28;11.70;99.90
22442;DHT22;11388;54.456;9.752;2022-10-19T05:54:56;11.90;99.90
22442;DHT22;11388;54.456;9.752;2022-10-19T05:57:23;11.70;99.90
22442;DHT22;11388;54.456;9.752;2022-10-19T05:59:52;11.70;99.90
22442;DHT22;11388;54.456;9.752;2022-10-19T06:02:26;11.70;99.90
22442;DHT22;11388;54.456;9.752;2022-10-19T06:04:58;11.60;99.90
22442;DHT22;11388;54.456;9.752;2022-10-19T06:07:29;11.60;99.90
22442;DHT22;11388;54.456;9.752;2022-10-19T06:10:03;11.60;99.90
22442;DHT22;11388;54.456;9.752;2022-10-19T06:12:44;11.50;99.90
22442;DHT22;11388;54.456;9.752;2022-10-19T06:15:18;11.50;99.90
22442;DHT22;11388;54.456;9.752;2022-10-19T06:17:46;11.50;99.90
22442;DHT22;11388;54.456;9.752;2022-10-19T06:20:14;11.30;99.90
22442;DHT22;11388;54.456;9.752;2022-10-19T06:22:46;11.30;99.90
22442;DHT22;11388;54.456;9.752;2022-10-19T06:25:15;11.20;99.90
22442;DHT22;11388;54.456;9.752;2022-10-19T06:28:09;11.10;99.90
22442;DHT22;11388;54.456;9.752;2022-10-19T06:31:10;11.10;99.90
22442;DHT22;11388;54.456;9.752;2022-10-19T06:33:38;11.00;99.90
22442;DHT22;11388;54.456;9.752;2022-10-19T06:39:54;10.90;99.90
22442;DHT22;11388;54.456;9.752;2022-10-19T06:42:25;10.80;99.90
22442;DHT22;11388;54.456;9.752;2022-10-19T06:45:14;10.80;99.90
22442;DHT22;11388;54.456;9.752;2022-10-19T06:47:40;10.90;99.90
22442;DHT22;11388;54.456;9.752;2022-10-19T06:50:06;10.90;99.90
22442;DHT22;11388;54.456;9.752;2022-10-19T06:52:33;11.00;99.90
22442;DHT22;11388;54.456;9.752;2022-10-19T06:55:04;11.00;99.90
22442;DHT22;11388;54.456;9.752;2022-10-19T06:57:33;11.10;99.90
22442;DHT22;11388;54.456;9.752;2022-10-19T06:59:58;11.20;99.90
22442;DHT22;11388;54.456;9.752;2022-10-19T07:02:32;11.30;99.90
22442;DHT22;11388;54.456;9.752;2022-10-19T07:05:04;11.40;99.90
22442;DHT22;11388;54.456;9.752;2022-10-19T07:07:40;11.40;99.90
22442;DHT22;11388;54.456;9.752;2022-10-19T07:10:09;11.40;99.90
22442;DHT22;11388;54.456;9.752;2022-10-19T07:12:35;11.50;99.90
22442;DHT22;11388;54.456;9.752;2022-10-19T07:15:01;11.40;99.90
22442;DHT22;11388;54.456;9.752;2022-10-19T07:48:00;11.70;99.90
22442;DHT22;11388;54.456;9.752;2022-10-19T07:53:32;11.60;99.90
22442;DHT22;11388;54.456;9.752;2022-10-19T08:03:23;11.60;99.90
22442;DHT22;11388;54.456;9.752;2022-10-19T08:05:44;11.70;99.90
22442;DHT22;11388;54.456;9.752;2022-10-19T08:13:40;11.70;99.90
22442;DHT22;11388;54.456;9.752;2022-10-19T08:16:44;11.70;99.90
22442;DHT22;11388;54.456;9.752;2022-10-19T08:23:11;11.80;99.90
22442;DHT22;11388;54.456;9.752;2022-10-19T08:26:05;11.90;99.90
22442;DHT22;11388;54.456;9.752;2022-10-19T09:06:02;12.20;99.90
22442;DHT22;11388;54.456;9.752;2022-10-19T09:09:05;12.30;99.90
22442;DHT22;11388;54.456;9.752;2022-10-19T09:11:43;12.30;99.90
22442;DHT22;11388;54.456;9.752;2022-10-19T09:14:41;12.40;99.90
22442;DHT22;11388;54.456;9.752;2022-10-19T09:17:12;12.40;99.90
22442;DHT22;11388;54.456;9.752;2022-10-19T09:19:38;12.50;99.90
22442;DHT22;11388;54.456;9.752;2022-10-19T09:25:19;12.50;99.90
22442;DHT22;11388;54.456;9.752;2022-10-19T09:27:48;12.40;99.90
22442;DHT22;11388;54.456;9.752;2022-10-19T09:30:20;12.50;99.90
22442;DHT22;11388;54.456;9.752;2022-10-19T09:32:55;12.50;99.90
22442;DHT22;11388;54.456;9.752;2022-10-19T09:35:32;12.50;99.90
22442;DHT22;11388;54.456;9.752;2022-10-19T09:38:05;12.50;99.90
22442;DHT22;11388;54.456;9.752;2022-10-19T09:40:32;12.50;99.90
22442;DHT22;11388;54.456;9.752;2022-10-19T09:43:10;12.50;99.90
22442;DHT22;11388;54.456;9.752;2022-10-19T09:49:44;12.50;99.90
22442;DHT22;11388;54.456;9.752;2022-10-19T09:52:38;12.50;99.90
22442;DHT22;11388;54.456;9.752;2022-10-19T09:57:47;12.50;99.90
22442;DHT22;11388;54.456;9.752;2022-10-19T10:00:25;12.50;99.90
22442;DHT22;11388;54.456;9.752;2022-10-19T10:03:20;12.60;99.90
22442;DHT22;11388;54.456;9.752;2022-10-19T10:05:49;12.60;99.90
22442;DHT22;11388;54.456;9.752;2022-10-19T10:08:22;12.60;99.90
22442;DHT22;11388;54.456;9.752;2022-10-19T10:10:58;12.60;99.90
22442;DHT22;11388;54.456;9.752;2022-10-19T10:13:27;12.60;99.90
22442;DHT22;11388;54.456;9.752;2022-10-19T10:15:59;12.70;99.90
22442;DHT22;11388;54.456;9.752;2022-10-19T10:18:27;12.70;99.90
22442;DHT22;11388;54.456;9.752;2022-10-19T10:21:14;12.70;99.90
22442;DHT22;11388;54.456;9.752;2022-10-19T10:24:18;12.70;99.90
22442;DHT22;11388;54.456;9.752;2022-10-19T10:26:46;12.80;99.90
22442;DHT22;11388;54.456;9.752;2022-10-19T10:29:21;12.80;99.90
22442;DHT22;11388;54.456;9.752;2022-10-19T10:31:57;12.80;99.90
22442;DHT22;11388;54.456;9.752;2022-10-19T10:34:33;12.80;99.90
22442;DHT22;11388;54.456;9.752;2022-10-19T10:37:02;12.80;99.90
22442;DHT22;11388;54.456;9.752;2022-10-19T10:39:29;12.80;99.90
22442;DHT22;11388;54.456;9.752;2022-10-19T10:41:59;12.90;99.90
22442;DHT22;11388;54.456;9.752;2022-10-19T10:44:27;12.90;99.90
22442;DHT22;11388;54.456;9.752;2022-10-19T10:46:57;12.90;99.90
22442;DHT22;11388;54.456;9.752;2022-10-19T10:49:31;12.90;99.90
22442;DHT22;11388;54.456;9.752;2022-10-19T10:51:59;12.80;99.90
22442;DHT22;11388;54.456;9.752;2022-10-19T10:54:28;12.80;99.90
22442;DHT22;11388;54.456;9.752;2022-10-19T10:59:27;12.90;99.90
22442;DHT22;11388;54.456;9.752;2022-10-19T11:02:01;12.90;99.90
22442;DHT22;11388;54.456;9.752;2022-10-19T11:04:38;12.90;99.90
22442;DHT22;11388;54.456;9.752;2022-10-19T11:07:20;13.00;99.90
22442;DHT22;11388;54.456;9.752;2022-10-19T11:09:56;13.00;99.90
22442;DHT22;11388;54.456;9.752;2022-10-19T11:12:35;13.10;99.90
22442;DHT22;11388;54.456;9.752;2022-10-19T11:18:06;13.10;99.90
22442;DHT22;11388;54.456;9.752;2022-10-19T11:20:42;13.10;99.90
22442;DHT22;11388;54.456;9.752;2022-10-19T11:23:25;13.10;99.90
22442;DHT22;11388;54.456;9.752;2022-10-19T11:28:38;13.20;99.90
22442;DHT22;11388;54.456;9.752;2022-10-19T11:31:20;13.20;99.90
22442;DHT22;11388;54.456;9.752;2022-10-19T11:33:53;13.30;99.90
22442;DHT22;11388;54.456;9.752;2022-10-19T11:39:28;13.30;99.90
22442;DHT22;11388;54.456;9.752;2022-10-19T11:47:45;13.40;99.90
22442;DHT22;11388;54.456;9.752;2022-10-19T11:50:35;13.40;99.90
22442;DHT22;11388;54.456;9.752;2022-10-19T11:53:11;13.60;99.90
22442;DHT22;11388;54.456;9.752;2022-10-19T12:04:11;15.80;99.90
22442;DHT22;11388;54.456;9.752;2022-10-19T12:12:39;21.00;99.90
22442;DHT22;11388;54.456;9.752;2022-10-19T12:15:28;22.40;99.90
22442;DHT22;11388;54.456;9.752;2022-10-19T12:18:07;23.40;99.90
22442;DHT22;11388;54.456;9.752;2022-10-19T12:20:43;24.10;99.40
22442;DHT22;11388;54.456;9.752;2022-10-19T12:23:29;24.40;98.50
22442;DHT22;11388;54.456;9.752;2022-10-19T12:25:58;24.20;96.80
22442;DHT22;11388;54.456;9.752;2022-10-19T12:28:27;23.10;98.90
22442;DHT22;11388;54.456;9.752;2022-10-19T12:30:54;22.20;98.30
22442;DHT22;11388;54.456;9.752;2022-10-19T12:36:24;20.50;99.90
22442;DHT22;11388;54.456;9.752;2022-10-19T12:41:35;17.70;99.90
22442;DHT22;11388;54.456;9.752;2022-10-19T12:44:33;17.10;99.90
22442;DHT22;11388;54.456;9.752;2022-10-19T12:47:17;16.60;99.90
22442;DHT22;11388;54.456;9.752;2022-10-19T12:55:30;15.20;99.90
22442;DHT22;11388;54.456;9.752;2022-10-19T12:58:20;15.00;99.90
22442;DHT22;11388;54.456;9.752;2022-10-19T13:04:09;14.60;99.90
22442;DHT22;11388;54.456;9.752;2022-10-19T13:09:33;14.30;99.90
22442;DHT22;11388;54.456;9.752;2022-10-19T13:15:09;14.10;99.90
22442;DHT22;11388;54.456;9.752;2022-10-19T13:17:52;14.00;99.90
22442;DHT22;11388;54.456;9.752;2022-10-19T13:25:41;13.70;99.90
22442;DHT22;11388;54.456;9.752;2022-10-19T13:44:46;13.60;99.90
22442;DHT22;11388;54.456;9.752;2022-10-19T14:22:05;13.30;99.90
22442;DHT22;11388;54.456;9.752;2022-10-19T14:32:12;13.10;99.90
22442;DHT22;11388;54.456;9.752;2022-10-19T14:35:23;13.10;99.90
22442;DHT22;11388;54.456;9.752;2022-10-19T14:41:55;13.10;99.90
22442;DHT22;11388;54.456;9.752;2022-10-19T14:44:49;13.00;99.90
22442;DHT22;11388;54.456;9.752;2022-10-19T14:48:04;13.00;99.90
22442;DHT22;11388;54.456;9.752;2022-10-19T15:00:47;12.80;99.90
22442;DHT22;11388;54.456;9.752;2022-10-19T15:03:40;12.70;99.90
22442;DHT22;11388;54.456;9.752;2022-10-19T15:06:07;12.70;99.90
22442;DHT22;11388;54.456;9.752;2022-10-19T15:12:39;12.80;99.90
22442;DHT22;11388;54.456;9.752;2022-10-19T15:45:29;12.90;99.90
22442;DHT22;11388;54.456;9.752;2022-10-19T15:48:23;12.80;99.90
22442;DHT22;11388;54.456;9.752;2022-10-19T15:50:50;12.70;99.90
22442;DHT22;11388;54.456;9.752;2022-10-19T15:53:24;12.60;99.90
22442;DHT22;11388;54.456;9.752;2022-10-19T15:56:00;12.50;99.90
22442;DHT22;11388;54.456;9.752;2022-10-19T15:58:25;12.40;99.90
22442;DHT22;11388;54.456;9.752;2022-10-19T16:00:51;12.30;99.90
22442;DHT22;11388;54.456;9.752;2022-10-19T16:03:17;12.40;99.90
22442;DHT22;11388;54.456;9.752;2022-10-19T16:05:42;12.40;99.90
22442;DHT22;11388;54.456;9.752;2022-10-19T16:08:08;12.30;99.90
22442;DHT22;11388;54.456;9.752;2022-10-19T16:10:34;12.30;99.90
22442;DHT22;11388;54.456;9.752;2022-10-19T16:13:00;12.30;99.90
22442;DHT22;11388;54.456;9.752;2022-10-19T16:15:26;12.10;99.90
22442;DHT22;11388;54.456;9.752;2022-10-19T16:17:54;12.00;99.90
22442;DHT22;11388;54.456;9.752;2022-10-19T16:20:21;11.90;99.90
22442;DHT22;11388;54.456;9.752;2022-10-19T16:22:47;11.90;99.90
22442;DHT22;11388;54.456;9.752;2022-10-19T16:25:14;11.90;99.90
22442;DHT22;11388;54.456;9.752;2022-10-19T16:27:40;11.90;99.90
22442;DHT22;11388;54.456;9.752;2022-10-19T16:30:06;11.90;99.90
22442;DHT22;11388;54.456;9.752;2022-10-19T16:32:32;11.80;99.90
22442;DHT22;11388;54.456;9.752;2022-10-19T16:34:58;11.70;99.90
22442;DHT22;11388;54.456;9.752;2022-10-19T16:37:24;11.70;99.90
22442;DHT22;11388;54.456;9.752;2022-10-19T16:40:01;11.50;99.90
22442;DHT22;11388;54.456;9.752;2022-10-19T16:42:26;11.40;99.90
22442;DHT22;11388;54.456;9.752;2022-10-19T16:45:00;11.40;99.90
22442;DHT22;11388;54.456;9.752;2022-10-19T16:47:25;11.30;99.90
22442;DHT22;11388;54.456;9.752;2022-10-19T16:49:57;11.20;99.90
22442;DHT22;11388;54.456;9.752;2022-10-19T16:52:25;11.10;99.90
22442;DHT22;11388;54.456;9.752;2022-10-19T16:54:51;11.00;99.90
22442;DHT22;11388;54.456;9.752;2022-10-19T16:57:17;10.80;99.90
22442;DHT22;11388;54.456;9.752;2022-10-19T16:59:42;10.80;99.90
22442;DHT22;11388;54.456;9.752;2022-10-19T17:02:22;10.80;99.90
22442;DHT22;11388;54.456;9.752;2022-10-19T17:04:48;10.70;99.90
22442;DHT22;11388;54.456;9.752;2022-10-19T17:07:14;10.70;99.90
22442;DHT22;11388;54.456;9.752;2022-10-19T17:09:40;10.60;99.90
22442;DHT22;11388;54.456;9.752;2022-10-19T17:12:08;10.60;99.90
22442;DHT22;11388;54.456;9.752;2022-10-19T17:14:34;10.50;99.90
22442;DHT22;11388;54.456;9.752;2022-10-19T17:17:00;10.50;99.90
22442;DHT22;11388;54.456;9.752;2022-10-19T17:19:26;10.40;99.90
22442;DHT22;11388;54.456;9.752;2022-10-19T17:21:54;10.30;99.90
22442;DHT22;11388;54.456;9.752;2022-10-19T17:24:21;10.30;99.90
22442;DHT22;11388;54.456;9.752;2022-10-19T17:26:48;10.30;99.90
22442;DHT22;11388;54.456;9.752;2022-10-19T17:29:14;10.30;99.90
22442;DHT22;11388;54.456;9.752;2022-10-19T17:31:41;10.30;99.90
22442;DHT22;11388;54.456;9.752;2022-10-19T17:34:07;10.20;99.90
22442;DHT22;11388;54.456;9.752;2022-10-19T17:36:36;10.10;99.90
22442;DHT22;11388;54.456;9.752;2022-10-19T17:39:05;10.10;99.90
22442;DHT22;11388;54.456;9.752;2022-10-19T17:41:31;10.10;99.90
22442;DHT22;11388;54.456;9.752;2022-10-19T17:43:57;10.00;99.90
22442;DHT22;11388;54.456;9.752;2022-10-19T17:46:26;10.00;99.90
22442;DHT22;11388;54.456;9.752;2022-10-19T17:48:52;10.00;99.90
22442;DHT22;11388;54.456;9.752;2022-10-19T17:51:28;9.90;99.90
22442;DHT22;11388;54.456;9.752;2022-10-19T17:53:58;9.90;99.90
22442;DHT22;11388;54.456;9.752;2022-10-19T17:56:25;9.90;99.90
22442;DHT22;11388;54.456;9.752;2022-10-19T17:58:51;9.80;99.90
22442;DHT22;11388;54.456;9.752;2022-10-19T18:01:20;9.80;99.90
22442;DHT22;11388;54.456;9.752;2022-10-19T18:03:46;9.70;99.90
22442;DHT22;11388;54.456;9.752;2022-10-19T18:06:15;9.70;99.90
22442;DHT22;11388;54.456;9.752;2022-10-19T18:08:43;9.70;99.90
22442;DHT22;11388;54.456;9.752;2022-10-19T18:13:43;9.60;99.90
22442;DHT22;11388;54.456;9.752;2022-10-19T18:16:12;9.50;99.90
22442;DHT22;11388;54.456;9.752;2022-10-19T18:18:40;9.40;99.90
22442;DHT22;11388;54.456;9.752;2022-10-19T18:21:08;9.40;99.90
22442;DHT22;11388;54.456;9.752;2022-10-19T18:23:34;9.30;99.90
22442;DHT22;11388;54.456;9.752;2022-10-19T18:26:01;9.30;99.90
22442;DHT22;11388;54.456;9.752;2022-10-19T18:28:30;9.30;99.90
22442;DHT22;11388;54.456;9.752;2022-10-19T18:31:02;9.20;99.90
22442;DHT22;11388;54.456;9.752;2022-10-19T18:33:28;9.20;99.90
22442;DHT22;11388;54.456;9.752;2022-10-19T18:35:56;9.20;99.90
22442;DHT22;11388;54.456;9.752;2022-10-19T18:38:22;9.10;99.90
22442;DHT22;11388;54.456;9.752;2022-10-19T18:40:48;9.00;99.90
22442;DHT22;11388;54.456;9.752;2022-10-19T18:43:14;9.10;99.90
22442;DHT22;11388;54.456;9.752;2022-10-19T18:45:52;9.00;99.90
22442;DHT22;11388;54.456;9.752;2022-10-19T18:48:19;9.00;99.90
22442;DHT22;11388;54.456;9.752;2022-10-19T18:50:45;8.90;99.90
22442;DHT22;11388;54.456;9.752;2022-10-19T18:53:11;8.90;99.90
22442;DHT22;11388;54.456;9.752;2022-10-19T18:55:37;8.80;99.90
22442;DHT22;11388;54.456;9.752;2022-10-19T18:58:03;8.80;99.90
22442;DHT22;11388;54.456;9.752;2022-10-19T19:00:28;8.90;99.90
22442;DHT22;11388;54.456;9.752;2022-10-19T19:02:54;8.80;99.90
22442;DHT22;11388;54.456;9.752;2022-10-19T19:05:20;8.70;99.90
22442;DHT22;11388;54.456;9.752;2022-10-19T19:07:47;8.70;99.90
22442;DHT22;11388;54.456;9.752;2022-10-19T19:10:13;8.70;99.90
22442;DHT22;11388;54.456;9.752;2022-10-19T19:12:40;8.70;99.90
22442;DHT22;11388;54.456;9.752;2022-10-19T19:15:08;8.70;99.90
22442;DHT22;11388;54.456;9.752;2022-10-19T19:17:35;8.60;99.90
22442;DHT22;11388;54.456;9.752;2022-10-19T19:20:02;8.50;99.90
22442;DHT22;11388;54.456;9.752;2022-10-19T19:22:27;8.50;99.90
22442;DHT22;11388;54.456;9.752;2022-10-19T19:24:53;8.40;99.90
22442;DHT22;11388;54.456;9.752;2022-10-19T19:27:20;8.30;99.90
22442;DHT22;11388;54.456;9.752;2022-10-19T19:29:53;8.40;99.90
22442;DHT22;11388;54.456;9.752;2022-10-19T19:32:20;8.40;99.90
22442;DHT22;11388;54.456;9.752;2022-10-19T19:34:46;8.30;99.90
22442;DHT22;11388;54.456;9.752;2022-10-19T19:37:12;8.30;99.90
22442;DHT22;11388;54.456;9.752;2022-10-19T19:39:38;8.30;99.90
22442;DHT22;11388;54.456;9.752;2022-10-19T19:42:05;8.30;99.90
22442;DHT22;11388;54.456;9.752;2022-10-19T19:44:31;8.20;99.90
22442;DHT22;11388;54.456;9.752;2022-10-19T19:46:58;8.20;99.90
22442;DHT22;11388;54.456;9.752;2022-10-19T19:49:24;8.20;99.90
22442;DHT22;11388;54.456;9.752;2022-10-19T19:52:09;8.20;99.90
22442;DHT22;11388;54.456;9.752;2022-10-19T19:54:34;8.20;99.90
22442;DHT22;11388;54.456;9.752;2022-10-19T19:57:00;8.10;99.90
22442;DHT22;11388;54.456;9.752;2022-10-19T19:59:26;8.10;99.90
22442;DHT22;11388;54.456;9.752;2022-10-19T20:01:52;8.10;99.90
22442;DHT22;11388;54.456;9.752;2022-10-19T20:04:17;8.10;99.90
22442;DHT22;11388;54.456;9.752;2022-10-19T20:06:44;8.10;99.90
22442;DHT22;11388;54.456;9.752;2022-10-19T20:09:10;7.90;99.90
22442;DHT22;11388;54.456;9.752;2022-10-19T20:11:36;7.90;99.90
22442;DHT22;11388;54.456;9.752;2022-10-19T20:14:01;8.00;99.90
22442;DHT22;11388;54.456;9.752;2022-10-19T20:16:29;8.00;99.90
22442;DHT22;11388;54.456;9.752;2022-10-19T20:19:08;8.00;99.90
22442;DHT22;11388;54.456;9.752;2022-10-19T20:21:34;7.90;99.90
22442;DHT22;11388;54.456;9.752;2022-10-19T20:24:00;7.90;99.90
22442;DHT22;11388;54.456;9.752;2022-10-19T20:26:26;7.80;99.90
22442;DHT22;11388;54.456;9.752;2022-10-19T20:28:53;7.70;99.90
22442;DHT22;11388;54.456;9.752;2022-10-19T20:31:32;7.80;99.90
22442;DHT22;11388;54.456;9.752;2022-10-19T20:34:07;7.90;99.90
22442;DHT22;11388;54.456;9.752;2022-10-19T20:36:33;7.90;99.90
22442;DHT22;11388;54.456;9.752;2022-10-19T20:38:59;7.90;99.90
22442;DHT22;11388;54.456;9.752;2022-10-19T20:41:29;7.90;99.90
22442;DHT22;11388;54.456;9.752;2022-10-19T20:43:55;7.90;99.90
22442;DHT22;11388;54.456;9.752;2022-10-19T20:46:24;7.80;99.90
22442;DHT22;11388;54.456;9.752;2022-10-19T20:48:50;7.70;99.90
22442;DHT22;11388;54.456;9.752;2022-10-19T20:51:25;7.80;99.90
22442;DHT22;11388;54.456;9.752;2022-10-19T20:53:53;7.80;99.90
22442;DHT22;11388;54.456;9.752;2022-10-19T20:56:21;7.70;99.90
22442;DHT22;11388;54.456;9.752;2022-10-19T20:58:53;7.60;99.90
22442;DHT22;11388;54.456;9.752;2022-10-19T21:01:19;7.70;99.90